sensor_id;sensor_type;location;lat;lon;timestamp;P1;durP1;ratioP1;P2;durP2;ratioP2
15077;SDS011;7638;49.760;8.646;2023-04-22T00:01:02;2.07;;;1.67;;
15077;SDS011;7638;49.760;8.646;2023-04-22T00:03:28;2.60;;;1.63;;
15077;SDS011;7638;49.760;8.646;2023-04-22T00:05:55;2.13;;;1.43;;
15077;SDS011;7638;49.760;8.646;2023-04-22T00:08:21;2.70;;;1.73;;
15077;SDS011;7638;49.760;8.646;2023-04-22T00:10:47;1.93;;;1.40;;
15077;SDS011;7638;49.760;8.646;2023-04-22T00:13:12;2.30;;;1.80;;
15077;SDS011;7638;49.760;8.646;2023-04-22T00:15:38;2.60;;;1.67;;
15077;SDS011;7638;49.760;8.646;2023-04-22T00:18:04;1.40;;;1.30;;
15077;SDS011;7638;49.760;8.646;2023-04-22T00:20:31;3.00;;;1.60;;
15077;SDS011;7638;49.760;8.646;2023-04-22T00:22:57;1.60;;;1.47;;
15077;SDS011;7638;49.760;8.646;2023-04-22T00:25:23;2.13;;;1.60;;
15077;SDS011;7638;49.760;8.646;2023-04-22T00:27:49;1.93;;;1.60;;
15077;SDS011;7638;49.760;8.646;2023-04-22T00:30:15;2.90;;;1.60;;
15077;SDS011;7638;49.760;8.646;2023-04-22T00:32:41;2.73;;;2.53;;
15077;SDS011;7638;49.760;8.646;2023-04-22T00:35:07;2.77;;;1.73;;
15077;SDS011;7638;49.760;8.646;2023-04-22T00:37:33;2.57;;;1.70;;
15077;SDS011;7638;49.760;8.646;2023-04-22T00:39:59;1.60;;;1.30;;
15077;SDS011;7638;49.760;8.646;2023-04-22T00:42:25;3.60;;;1.80;;
15077;SDS011;7638;49.760;8.646;2023-04-22T00:44:51;2.50;;;2.00;;
15077;SDS011;7638;49.760;8.646;2023-04-22T00:47:18;2.13;;;1.63;;
15077;SDS011;7638;49.760;8.646;2023-04-22T00:49:44;3.20;;;2.07;;
15077;SDS011;7638;49.760;8.646;2023-04-22T00:52:11;3.03;;;1.93;;
15077;SDS011;7638;49.760;8.646;2023-04-22T00:54:37;6.00;;;2.03;;
15077;SDS011;7638;49.760;8.646;2023-04-22T00:57:03;2.03;;;1.70;;
15077;SDS011;7638;49.760;8.646;2023-04-22T00:59:30;1.67;;;1.57;;
15077;SDS011;7638;49.760;8.646;2023-04-22T01:01:56;1.50;;;1.30;;
15077;SDS011;7638;49.760;8.646;2023-04-22T01:04:22;1.60;;;1.27;;
15077;SDS011;7638;49.760;8.646;2023-04-22T01:06:50;2.07;;;1.30;;
15077;SDS011;7638;49.760;8.646;2023-04-22T01:09:19;1.00;;;0.90;;
15077;SDS011;7638;49.760;8.646;2023-04-22T01:11:46;1.57;;;1.23;;
15077;SDS011;7638;49.760;8.646;2023-04-22T01:14:12;1.63;;;1.30;;
15077;SDS011;7638;49.760;8.646;2023-04-22T01:16:38;1.50;;;1.40;;
15077;SDS011;7638;49.760;8.646;2023-04-22T01:19:05;2.13;;;1.73;;
15077;SDS011;7638;49.760;8.646;2023-04-22T01:21:32;1.67;;;1.53;;
15077;SDS011;7638;49.760;8.646;2023-04-22T01:24:00;1.90;;;1.70;;
15077;SDS011;7638;49.760;8.646;2023-04-22T01:26:26;3.13;;;1.50;;
15077;SDS011;7638;49.760;8.646;2023-04-22T01:28:52;3.23;;;1.93;;
15077;SDS011;7638;49.760;8.646;2023-04-22T01:31:21;4.83;;;1.73;;
15077;SDS011;7638;49.760;8.646;2023-04-22T01:33:47;2.40;;;1.93;;
15077;SDS011;7638;49.760;8.646;2023-04-22T01:36:13;2.80;;;2.03;;
15077;SDS011;7638;49.760;8.646;2023-04-22T01:38:39;2.63;;;2.07;;
15077;SDS011;7638;49.760;8.646;2023-04-22T01:41:06;3.67;;;2.23;;
15077;SDS011;7638;49.760;8.646;2023-04-22T01:43:32;2.17;;;1.70;;
15077;SDS011;7638;49.760;8.646;2023-04-22T01:46:01;2.83;;;1.80;;
15077;SDS011;7638;49.760;8.646;2023-04-22T01:48:28;2.30;;;1.80;;
15077;SDS011;7638;49.760;8.646;2023-04-22T01:50:54;2.77;;;2.13;;
15077;SDS011;7638;49.760;8.646;2023-04-22T01:53:20;2.43;;;1.87;;
15077;SDS011;7638;49.760;8.646;2023-04-22T01:55:46;5.23;;;3.00;;
15077;SDS011;7638;49.760;8.646;2023-04-22T01:58:12;3.13;;;2.67;;
15077;SDS011;7638;49.760;8.646;2023-04-22T02:00:41;3.03;;;2.13;;
15077;SDS011;7638;49.760;8.646;2023-04-22T02:03:07;5.57;;;1.97;;
15077;SDS011;7638;49.760;8.646;2023-04-22T02:05:33;4.93;;;1.90;;
15077;SDS011;7638;49.760;8.646;2023-04-22T02:07:59;3.23;;;1.70;;
15077;SDS011;7638;49.760;8.646;2023-04-22T02:10:25;2.10;;;1.90;;
15077;SDS011;7638;49.760;8.646;2023-04-22T02:12:51;2.63;;;2.10;;
15077;SDS011;7638;49.760;8.646;2023-04-22T02:15:17;2.07;;;1.57;;
15077;SDS011;7638;49.760;8.646;2023-04-22T02:17:43;3.87;;;1.50;;
15077;SDS011;7638;49.760;8.646;2023-04-22T02:20:10;1.87;;;1.40;;
15077;SDS011;7638;49.760;8.646;2023-04-22T02:22:36;1.53;;;1.23;;
15077;SDS011;7638;49.760;8.646;2023-04-22T02:25:03;2.13;;;1.47;;
15077;SDS011;7638;49.760;8.646;2023-04-22T02:27:29;2.40;;;1.50;;
15077;SDS011;7638;49.760;8.646;2023-04-22T02:29:55;1.40;;;1.30;;
15077;SDS011;7638;49.760;8.646;2023-04-22T02:32:21;2.10;;;1.70;;
15077;SDS011;7638;49.760;8.646;2023-04-22T02:34:47;3.20;;;2.00;;
15077;SDS011;7638;49.760;8.646;2023-04-22T02:37:13;2.27;;;1.87;;
15077;SDS011;7638;49.760;8.646;2023-04-22T02:39:39;2.93;;;1.47;;
15077;SDS011;7638;49.760;8.646;2023-04-22T02:42:05;3.50;;;1.87;;
15077;SDS011;7638;49.760;8.646;2023-04-22T02:44:31;3.17;;;2.13;;
15077;SDS011;7638;49.760;8.646;2023-04-22T02:46:58;3.27;;;1.80;;
15077;SDS011;7638;49.760;8.646;2023-04-22T02:49:24;2.60;;;2.10;;
15077;SDS011;7638;49.760;8.646;2023-04-22T02:51:50;1.80;;;1.57;;
15077;SDS011;7638;49.760;8.646;2023-04-22T02:54:16;3.63;;;1.70;;
15077;SDS011;7638;49.760;8.646;2023-04-22T02:56:42;4.03;;;2.00;;
15077;SDS011;7638;49.760;8.646;2023-04-22T02:59:08;4.20;;;1.83;;
15077;SDS011;7638;49.760;8.646;2023-04-22T03:01:34;3.20;;;2.10;;
15077;SDS011;7638;49.760;8.646;2023-04-22T03:04:00;2.97;;;1.70;;
15077;SDS011;7638;49.760;8.646;2023-04-22T03:06:26;2.00;;;1.80;;
15077;SDS011;7638;49.760;8.646;2023-04-22T03:08:52;4.00;;;1.60;;
15077;SDS011;7638;49.760;8.646;2023-04-22T03:11:18;5.37;;;1.50;;
15077;SDS011;7638;49.760;8.646;2023-04-22T03:13:44;3.03;;;1.80;;
15077;SDS011;7638;49.760;8.646;2023-04-22T03:16:10;4.30;;;1.77;;
15077;SDS011;7638;49.760;8.646;2023-04-22T03:18:36;2.80;;;1.90;;
15077;SDS011;7638;49.760;8.646;2023-04-22T03:21:03;1.97;;;1.67;;
15077;SDS011;7638;49.760;8.646;2023-04-22T03:23:29;4.57;;;2.00;;
15077;SDS011;7638;49.760;8.646;2023-04-22T03:25:55;2.43;;;1.67;;
15077;SDS011;7638;49.760;8.646;2023-04-22T03:28:21;2.13;;;1.80;;
15077;SDS011;7638;49.760;8.646;2023-04-22T03:30:46;2.87;;;2.23;;
15077;SDS011;7638;49.760;8.646;2023-04-22T03:33:12;3.17;;;2.30;;
15077;SDS011;7638;49.760;8.646;2023-04-22T03:35:38;4.23;;;2.83;;
15077;SDS011;7638;49.760;8.646;2023-04-22T03:38:04;3.27;;;2.40;;
15077;SDS011;7638;49.760;8.646;2023-04-22T03:40:31;2.40;;;2.00;;
15077;SDS011;7638;49.760;8.646;2023-04-22T03:42:57;2.40;;;2.00;;
15077;SDS011;7638;49.760;8.646;2023-04-22T03:45:23;2.63;;;2.27;;
15077;SDS011;7638;49.760;8.646;2023-04-22T03:47:53;2.43;;;2.10;;
15077;SDS011;7638;49.760;8.646;2023-04-22T03:50:19;4.17;;;2.33;;
15077;SDS011;7638;49.760;8.646;2023-04-22T03:52:44;3.43;;;2.50;;
15077;SDS011;7638;49.760;8.646;2023-04-22T03:55:10;3.70;;;2.40;;
15077;SDS011;7638;49.760;8.646;2023-04-22T03:57:36;2.90;;;2.60;;
15077;SDS011;7638;49.760;8.646;2023-04-22T04:00:03;3.17;;;2.40;;
15077;SDS011;7638;49.760;8.646;2023-04-22T04:02:29;3.30;;;2.17;;
15077;SDS011;7638;49.760;8.646;2023-04-22T04:04:55;3.13;;;2.33;;
15077;SDS011;7638;49.760;8.646;2023-04-22T04:07:21;5.33;;;2.93;;
15077;SDS011;7638;49.760;8.646;2023-04-22T04:09:47;3.90;;;2.37;;
15077;SDS011;7638;49.760;8.646;2023-04-22T04:12:13;2.80;;;2.43;;
15077;SDS011;7638;49.760;8.646;2023-04-22T04:14:39;3.17;;;2.60;;
15077;SDS011;7638;49.760;8.646;2023-04-22T04:17:05;4.00;;;2.73;;
15077;SDS011;7638;49.760;8.646;2023-04-22T04:19:33;6.10;;;2.93;;
15077;SDS011;7638;49.760;8.646;2023-04-22T04:21:59;5.73;;;3.53;;
15077;SDS011;7638;49.760;8.646;2023-04-22T04:24:25;6.70;;;2.93;;
15077;SDS011;7638;49.760;8.646;2023-04-22T04:26:52;4.53;;;3.33;;
15077;SDS011;7638;49.760;8.646;2023-04-22T04:29:18;4.87;;;3.67;;
15077;SDS011;7638;49.760;8.646;2023-04-22T04:31:44;5.73;;;3.73;;
15077;SDS011;7638;49.760;8.646;2023-04-22T04:34:10;6.60;;;3.63;;
15077;SDS011;7638;49.760;8.646;2023-04-22T04:36:37;4.73;;;3.20;;
15077;SDS011;7638;49.760;8.646;2023-04-22T04:39:03;5.67;;;3.60;;
15077;SDS011;7638;49.760;8.646;2023-04-22T04:41:29;5.70;;;3.60;;
15077;SDS011;7638;49.760;8.646;2023-04-22T04:43:55;6.03;;;3.83;;
15077;SDS011;7638;49.760;8.646;2023-04-22T04:46:24;9.83;;;4.20;;
15077;SDS011;7638;49.760;8.646;2023-04-22T04:48:53;4.93;;;3.00;;
15077;SDS011;7638;49.760;8.646;2023-04-22T04:51:19;6.53;;;3.90;;
15077;SDS011;7638;49.760;8.646;2023-04-22T04:53:45;3.87;;;3.20;;
15077;SDS011;7638;49.760;8.646;2023-04-22T04:56:11;6.63;;;3.33;;
15077;SDS011;7638;49.760;8.646;2023-04-22T04:58:37;5.33;;;3.70;;
15077;SDS011;7638;49.760;8.646;2023-04-22T05:01:03;5.77;;;3.70;;
15077;SDS011;7638;49.760;8.646;2023-04-22T05:03:30;5.07;;;3.60;;
15077;SDS011;7638;49.760;8.646;2023-04-22T05:05:56;3.87;;;3.53;;
15077;SDS011;7638;49.760;8.646;2023-04-22T05:08:22;4.47;;;3.80;;
15077;SDS011;7638;49.760;8.646;2023-04-22T05:10:48;5.13;;;3.70;;
15077;SDS011;7638;49.760;8.646;2023-04-22T05:13:14;5.43;;;4.03;;
15077;SDS011;7638;49.760;8.646;2023-04-22T05:15:40;4.77;;;3.27;;
15077;SDS011;7638;49.760;8.646;2023-04-22T05:18:06;4.10;;;2.93;;
15077;SDS011;7638;49.760;8.646;2023-04-22T05:20:32;4.53;;;3.67;;
15077;SDS011;7638;49.760;8.646;2023-04-22T05:22:58;5.23;;;3.67;;
15077;SDS011;7638;49.760;8.646;2023-04-22T05:25:24;5.80;;;3.47;;
15077;SDS011;7638;49.760;8.646;2023-04-22T05:27:50;3.73;;;3.13;;
15077;SDS011;7638;49.760;8.646;2023-04-22T05:30:16;5.30;;;2.70;;
15077;SDS011;7638;49.760;8.646;2023-04-22T05:32:42;2.53;;;2.33;;
15077;SDS011;7638;49.760;8.646;2023-04-22T05:35:09;6.87;;;2.97;;
15077;SDS011;7638;49.760;8.646;2023-04-22T05:37:35;2.47;;;2.27;;
15077;SDS011;7638;49.760;8.646;2023-04-22T05:40:01;4.53;;;3.10;;
15077;SDS011;7638;49.760;8.646;2023-04-22T05:42:27;3.20;;;2.63;;
15077;SDS011;7638;49.760;8.646;2023-04-22T05:44:55;3.23;;;2.90;;
15077;SDS011;7638;49.760;8.646;2023-04-22T05:47:21;5.30;;;2.73;;
15077;SDS011;7638;49.760;8.646;2023-04-22T05:49:47;3.90;;;2.80;;
15077;SDS011;7638;49.760;8.646;2023-04-22T05:52:13;4.20;;;3.00;;
15077;SDS011;7638;49.760;8.646;2023-04-22T05:54:40;3.80;;;3.00;;
15077;SDS011;7638;49.760;8.646;2023-04-22T05:57:06;3.40;;;2.90;;
15077;SDS011;7638;49.760;8.646;2023-04-22T05:59:32;4.73;;;3.50;;
15077;SDS011;7638;49.760;8.646;2023-04-22T06:01:58;5.30;;;3.13;;
15077;SDS011;7638;49.760;8.646;2023-04-22T06:04:24;4.57;;;2.83;;
15077;SDS011;7638;49.760;8.646;2023-04-22T06:06:50;6.33;;;2.97;;
15077;SDS011;7638;49.760;8.646;2023-04-22T06:09:19;4.03;;;3.27;;
15077;SDS011;7638;49.760;8.646;2023-04-22T06:11:45;4.00;;;2.87;;
15077;SDS011;7638;49.760;8.646;2023-04-22T06:14:11;7.13;;;3.73;;
15077;SDS011;7638;49.760;8.646;2023-04-22T06:16:37;3.50;;;2.80;;
15077;SDS011;7638;49.760;8.646;2023-04-22T06:19:04;9.00;;;3.83;;
15077;SDS011;7638;49.760;8.646;2023-04-22T06:21:30;6.33;;;3.50;;
15077;SDS011;7638;49.760;8.646;2023-04-22T06:23:58;4.87;;;3.20;;
15077;SDS011;7638;49.760;8.646;2023-04-22T06:26:24;6.47;;;5.50;;
15077;SDS011;7638;49.760;8.646;2023-04-22T06:28:51;12.10;;;6.47;;
15077;SDS011;7638;49.760;8.646;2023-04-22T06:31:17;9.10;;;6.60;;
15077;SDS011;7638;49.760;8.646;2023-04-22T06:33:43;9.87;;;5.73;;
15077;SDS011;7638;49.760;8.646;2023-04-22T06:36:09;7.87;;;5.90;;
15077;SDS011;7638;49.760;8.646;2023-04-22T06:38:35;9.20;;;6.30;;
15077;SDS011;7638;49.760;8.646;2023-04-22T06:41:01;8.40;;;6.67;;
15077;SDS011;7638;49.760;8.646;2023-04-22T06:43:27;8.50;;;5.47;;
15077;SDS011;7638;49.760;8.646;2023-04-22T06:45:53;6.20;;;5.60;;
15077;SDS011;7638;49.760;8.646;2023-04-22T06:48:19;7.87;;;5.20;;
15077;SDS011;7638;49.760;8.646;2023-04-22T06:50:45;5.70;;;4.77;;
15077;SDS011;7638;49.760;8.646;2023-04-22T06:53:11;6.77;;;5.20;;
15077;SDS011;7638;49.760;8.646;2023-04-22T06:55:37;6.93;;;5.47;;
15077;SDS011;7638;49.760;8.646;2023-04-22T06:58:03;6.63;;;5.30;;
15077;SDS011;7638;49.760;8.646;2023-04-22T07:00:29;7.03;;;5.03;;
15077;SDS011;7638;49.760;8.646;2023-04-22T07:02:55;8.77;;;5.80;;
15077;SDS011;7638;49.760;8.646;2023-04-22T07:05:21;6.50;;;5.27;;
15077;SDS011;7638;49.760;8.646;2023-04-22T07:07:47;9.87;;;6.27;;
15077;SDS011;7638;49.760;8.646;2023-04-22T07:10:13;8.30;;;6.43;;
15077;SDS011;7638;49.760;8.646;2023-04-22T07:12:39;11.03;;;7.20;;
15077;SDS011;7638;49.760;8.646;2023-04-22T07:15:06;9.77;;;6.40;;
15077;SDS011;7638;49.760;8.646;2023-04-22T07:17:32;11.47;;;6.90;;
15077;SDS011;7638;49.760;8.646;2023-04-22T07:19:58;9.67;;;7.07;;
15077;SDS011;7638;49.760;8.646;2023-04-22T07:22:24;13.87;;;8.03;;
15077;SDS011;7638;49.760;8.646;2023-04-22T07:24:50;9.50;;;6.97;;
15077;SDS011;7638;49.760;8.646;2023-04-22T07:27:16;9.40;;;7.50;;
15077;SDS011;7638;49.760;8.646;2023-04-22T07:29:42;9.27;;;6.77;;
15077;SDS011;7638;49.760;8.646;2023-04-22T07:32:08;8.43;;;6.30;;
15077;SDS011;7638;49.760;8.646;2023-04-22T07:34:35;9.03;;;5.90;;
15077;SDS011;7638;49.760;8.646;2023-04-22T07:37:01;10.03;;;6.30;;
15077;SDS011;7638;49.760;8.646;2023-04-22T07:39:27;6.57;;;5.20;;
15077;SDS011;7638;49.760;8.646;2023-04-22T07:41:53;6.33;;;4.83;;
15077;SDS011;7638;49.760;8.646;2023-04-22T07:44:21;7.30;;;5.40;;
15077;SDS011;7638;49.760;8.646;2023-04-22T07:46:47;9.00;;;5.30;;
15077;SDS011;7638;49.760;8.646;2023-04-22T07:49:14;6.07;;;4.87;;
15077;SDS011;7638;49.760;8.646;2023-04-22T07:51:41;6.80;;;5.37;;
15077;SDS011;7638;49.760;8.646;2023-04-22T07:54:07;9.77;;;5.93;;
15077;SDS011;7638;49.760;8.646;2023-04-22T07:56:33;7.63;;;4.87;;
15077;SDS011;7638;49.760;8.646;2023-04-22T07:58:59;7.60;;;5.27;;
15077;SDS011;7638;49.760;8.646;2023-04-22T08:01:25;9.33;;;4.73;;
15077;SDS011;7638;49.760;8.646;2023-04-22T08:03:51;6.87;;;4.97;;
15077;SDS011;7638;49.760;8.646;2023-04-22T08:06:17;8.97;;;5.30;;
15077;SDS011;7638;49.760;8.646;2023-04-22T08:08:43;8.17;;;5.20;;
15077;SDS011;7638;49.760;8.646;2023-04-22T08:11:09;7.97;;;5.53;;
15077;SDS011;7638;49.760;8.646;2023-04-22T08:13:35;7.03;;;5.10;;
15077;SDS011;7638;49.760;8.646;2023-04-22T08:16:01;8.63;;;5.47;;
15077;SDS011;7638;49.760;8.646;2023-04-22T08:18:27;6.93;;;4.90;;
15077;SDS011;7638;49.760;8.646;2023-04-22T08:20:54;10.40;;;5.17;;
15077;SDS011;7638;49.760;8.646;2023-04-22T08:23:20;6.17;;;4.77;;
15077;SDS011;7638;49.760;8.646;2023-04-22T08:25:47;8.17;;;5.23;;
15077;SDS011;7638;49.760;8.646;2023-04-22T08:28:14;6.80;;;4.93;;
15077;SDS011;7638;49.760;8.646;2023-04-22T08:30:40;9.33;;;5.37;;
15077;SDS011;7638;49.760;8.646;2023-04-22T08:33:06;7.47;;;5.13;;
15077;SDS011;7638;49.760;8.646;2023-04-22T08:35:35;7.47;;;4.80;;
15077;SDS011;7638;49.760;8.646;2023-04-22T08:38:01;6.57;;;4.53;;
15077;SDS011;7638;49.760;8.646;2023-04-22T08:40:28;9.03;;;4.97;;
15077;SDS011;7638;49.760;8.646;2023-04-22T08:42:54;4.80;;;4.30;;
15077;SDS011;7638;49.760;8.646;2023-04-22T08:45:21;6.90;;;4.60;;
15077;SDS011;7638;49.760;8.646;2023-04-22T08:47:50;6.40;;;4.40;;
15077;SDS011;7638;49.760;8.646;2023-04-22T08:50:16;6.33;;;5.70;;
15077;SDS011;7638;49.760;8.646;2023-04-22T08:52:45;7.03;;;4.93;;
15077;SDS011;7638;49.760;8.646;2023-04-22T08:55:11;5.13;;;4.30;;
15077;SDS011;7638;49.760;8.646;2023-04-22T08:57:37;7.57;;;4.00;;
15077;SDS011;7638;49.760;8.646;2023-04-22T09:00:04;6.30;;;4.57;;
15077;SDS011;7638;49.760;8.646;2023-04-22T09:02:31;6.90;;;4.23;;
15077;SDS011;7638;49.760;8.646;2023-04-22T09:04:57;5.27;;;4.07;;
15077;SDS011;7638;49.760;8.646;2023-04-22T09:07:27;5.07;;;3.70;;
15077;SDS011;7638;49.760;8.646;2023-04-22T09:09:56;5.67;;;3.43;;
15077;SDS011;7638;49.760;8.646;2023-04-22T09:12:22;3.33;;;3.03;;
15077;SDS011;7638;49.760;8.646;2023-04-22T09:14:50;5.07;;;3.80;;
15077;SDS011;7638;49.760;8.646;2023-04-22T09:17:16;3.97;;;3.37;;
15077;SDS011;7638;49.760;8.646;2023-04-22T09:19:43;3.73;;;2.90;;
15077;SDS011;7638;49.760;8.646;2023-04-22T09:22:12;3.63;;;2.97;;
15077;SDS011;7638;49.760;8.646;2023-04-22T09:24:48;5.03;;;3.40;;
15077;SDS011;7638;49.760;8.646;2023-04-22T09:27:15;3.47;;;3.00;;
15077;SDS011;7638;49.760;8.646;2023-04-22T09:29:48;4.43;;;3.17;;
15077;SDS011;7638;49.760;8.646;2023-04-22T09:32:14;3.17;;;2.53;;
15077;SDS011;7638;49.760;8.646;2023-04-22T09:34:59;4.50;;;3.13;;
15077;SDS011;7638;49.760;8.646;2023-04-22T09:37:25;4.40;;;2.93;;
15077;SDS011;7638;49.760;8.646;2023-04-22T09:39:52;5.53;;;2.90;;
15077;SDS011;7638;49.760;8.646;2023-04-22T09:42:18;4.33;;;2.50;;
15077;SDS011;7638;49.760;8.646;2023-04-22T09:44:46;2.57;;;2.37;;
15077;SDS011;7638;49.760;8.646;2023-04-22T09:47:12;6.50;;;2.37;;
15077;SDS011;7638;49.760;8.646;2023-04-22T09:49:38;4.97;;;1.90;;
15077;SDS011;7638;49.760;8.646;2023-04-22T09:52:04;2.27;;;2.00;;
15077;SDS011;7638;49.760;8.646;2023-04-22T09:54:30;3.27;;;2.30;;
15077;SDS011;7638;49.760;8.646;2023-04-22T09:56:56;3.30;;;1.63;;
15077;SDS011;7638;49.760;8.646;2023-04-22T09:59:24;2.10;;;1.60;;
15077;SDS011;7638;49.760;8.646;2023-04-22T10:01:51;3.20;;;2.27;;
15077;SDS011;7638;49.760;8.646;2023-04-22T10:04:18;3.20;;;1.87;;
15077;SDS011;7638;49.760;8.646;2023-04-22T10:06:49;2.50;;;1.80;;
15077;SDS011;7638;49.760;8.646;2023-04-22T10:09:18;1.60;;;1.47;;
15077;SDS011;7638;49.760;8.646;2023-04-22T10:11:45;1.30;;;1.20;;
15077;SDS011;7638;49.760;8.646;2023-04-22T10:14:11;1.90;;;1.60;;
15077;SDS011;7638;49.760;8.646;2023-04-22T10:16:40;2.73;;;1.20;;
15077;SDS011;7638;49.760;8.646;2023-04-22T10:19:08;2.87;;;1.60;;
15077;SDS011;7638;49.760;8.646;2023-04-22T10:21:35;1.33;;;1.23;;
15077;SDS011;7638;49.760;8.646;2023-04-22T10:24:02;5.07;;;1.80;;
15077;SDS011;7638;49.760;8.646;2023-04-22T10:26:39;4.00;;;1.30;;
15077;SDS011;7638;49.760;8.646;2023-04-22T10:29:12;4.13;;;1.50;;
15077;SDS011;7638;49.760;8.646;2023-04-22T10:31:41;1.33;;;1.23;;
15077;SDS011;7638;49.760;8.646;2023-04-22T10:34:09;1.77;;;1.53;;
15077;SDS011;7638;49.760;8.646;2023-04-22T10:36:50;3.10;;;1.33;;
15077;SDS011;7638;49.760;8.646;2023-04-22T10:39:17;1.80;;;1.30;;
15077;SDS011;7638;49.760;8.646;2023-04-22T10:41:48;3.90;;;1.60;;
15077;SDS011;7638;49.760;8.646;2023-04-22T10:44:15;2.80;;;1.37;;
15077;SDS011;7638;49.760;8.646;2023-04-22T10:49:17;1.57;;;1.47;;
15077;SDS011;7638;49.760;8.646;2023-04-22T10:51:51;2.07;;;1.40;;
15077;SDS011;7638;49.760;8.646;2023-04-22T10:57:00;2.40;;;1.50;;
15077;SDS011;7638;49.760;8.646;2023-04-22T10:59:27;2.40;;;1.63;;
15077;SDS011;7638;49.760;8.646;2023-04-22T11:01:53;6.00;;;1.47;;
15077;SDS011;7638;49.760;8.646;2023-04-22T11:04:20;2.40;;;1.70;;
15077;SDS011;7638;49.760;8.646;2023-04-22T11:09:31;1.93;;;1.73;;
15077;SDS011;7638;49.760;8.646;2023-04-22T11:14:42;2.70;;;1.63;;
15077;SDS011;7638;49.760;8.646;2023-04-22T11:17:08;1.67;;;1.57;;
15077;SDS011;7638;49.760;8.646;2023-04-22T11:19:34;2.33;;;1.50;;
15077;SDS011;7638;49.760;8.646;2023-04-22T11:22:00;3.00;;;1.40;;
15077;SDS011;7638;49.760;8.646;2023-04-22T11:24:27;3.30;;;1.60;;
15077;SDS011;7638;49.760;8.646;2023-04-22T11:26:54;5.17;;;1.60;;
15077;SDS011;7638;49.760;8.646;2023-04-22T11:29:21;1.97;;;1.80;;
15077;SDS011;7638;49.760;8.646;2023-04-22T11:31:47;4.80;;;2.00;;
15077;SDS011;7638;49.760;8.646;2023-04-22T11:34:13;1.73;;;1.53;;
15077;SDS011;7638;49.760;8.646;2023-04-22T11:36:44;4.63;;;1.90;;
15077;SDS011;7638;49.760;8.646;2023-04-22T11:39:10;2.20;;;1.70;;
15077;SDS011;7638;49.760;8.646;2023-04-22T11:41:42;3.70;;;1.97;;
15077;SDS011;7638;49.760;8.646;2023-04-22T11:44:08;2.10;;;1.63;;
15077;SDS011;7638;49.760;8.646;2023-04-22T11:46:34;1.90;;;1.70;;
15077;SDS011;7638;49.760;8.646;2023-04-22T11:49:16;3.63;;;2.07;;
15077;SDS011;7638;49.760;8.646;2023-04-22T11:51:51;1.87;;;1.50;;
15077;SDS011;7638;49.760;8.646;2023-04-22T11:54:26;2.57;;;1.43;;
15077;SDS011;7638;49.760;8.646;2023-04-22T11:56:53;2.37;;;1.63;;
15077;SDS011;7638;49.760;8.646;2023-04-22T11:59:19;2.47;;;1.70;;
15077;SDS011;7638;49.760;8.646;2023-04-22T12:01:46;3.33;;;1.70;;
15077;SDS011;7638;49.760;8.646;2023-04-22T12:04:12;1.30;;;1.20;;
15077;SDS011;7638;49.760;8.646;2023-04-22T12:06:38;2.17;;;1.57;;
15077;SDS011;7638;49.760;8.646;2023-04-22T12:09:06;2.03;;;1.30;;
15077;SDS011;7638;49.760;8.646;2023-04-22T12:11:32;5.53;;;1.43;;
15077;SDS011;7638;49.760;8.646;2023-04-22T12:14:04;3.33;;;2.10;;
15077;SDS011;7638;49.760;8.646;2023-04-22T12:16:38;4.87;;;1.80;;
15077;SDS011;7638;49.760;8.646;2023-04-22T12:19:05;3.03;;;1.40;;
15077;SDS011;7638;49.760;8.646;2023-04-22T12:21:31;2.17;;;1.50;;
15077;SDS011;7638;49.760;8.646;2023-04-22T12:23:57;3.93;;;2.00;;
15077;SDS011;7638;49.760;8.646;2023-04-22T12:26:24;3.33;;;1.60;;
15077;SDS011;7638;49.760;8.646;2023-04-22T12:28:51;2.07;;;1.57;;
15077;SDS011;7638;49.760;8.646;2023-04-22T12:31:17;6.03;;;1.77;;
15077;SDS011;7638;49.760;8.646;2023-04-22T12:33:44;4.00;;;1.63;;
15077;SDS011;7638;49.760;8.646;2023-04-22T12:36:10;2.60;;;1.30;;
15077;SDS011;7638;49.760;8.646;2023-04-22T12:38:37;7.47;;;1.63;;
15077;SDS011;7638;49.760;8.646;2023-04-22T12:41:03;5.97;;;2.00;;
15077;SDS011;7638;49.760;8.646;2023-04-22T12:43:29;6.40;;;1.47;;
15077;SDS011;7638;49.760;8.646;2023-04-22T12:46:01;2.30;;;2.10;;
15077;SDS011;7638;49.760;8.646;2023-04-22T12:48:27;1.67;;;1.57;;
15077;SDS011;7638;49.760;8.646;2023-04-22T12:50:53;1.70;;;1.60;;
15077;SDS011;7638;49.760;8.646;2023-04-22T12:53:21;2.93;;;1.73;;
15077;SDS011;7638;49.760;8.646;2023-04-22T12:55:47;1.60;;;1.50;;
15077;SDS011;7638;49.760;8.646;2023-04-22T12:58:13;5.03;;;1.70;;
15077;SDS011;7638;49.760;8.646;2023-04-22T13:00:40;3.60;;;1.93;;
15077;SDS011;7638;49.760;8.646;2023-04-22T13:03:06;3.47;;;1.70;;
15077;SDS011;7638;49.760;8.646;2023-04-22T13:05:32;5.07;;;1.97;;
15077;SDS011;7638;49.760;8.646;2023-04-22T13:07:58;3.00;;;1.33;;
15077;SDS011;7638;49.760;8.646;2023-04-22T13:10:24;2.37;;;1.40;;
15077;SDS011;7638;49.760;8.646;2023-04-22T13:12:52;1.70;;;1.50;;
15077;SDS011;7638;49.760;8.646;2023-04-22T13:15:18;2.47;;;1.80;;
15077;SDS011;7638;49.760;8.646;2023-04-22T13:17:44;4.67;;;1.90;;
15077;SDS011;7638;49.760;8.646;2023-04-22T13:20:10;2.17;;;1.73;;
15077;SDS011;7638;49.760;8.646;2023-04-22T13:22:38;1.83;;;1.60;;
15077;SDS011;7638;49.760;8.646;2023-04-22T13:25:05;3.73;;;1.90;;
15077;SDS011;7638;49.760;8.646;2023-04-22T13:27:32;3.80;;;1.90;;
15077;SDS011;7638;49.760;8.646;2023-04-22T13:29:58;2.63;;;1.33;;
15077;SDS011;7638;49.760;8.646;2023-04-22T13:32:24;2.03;;;1.50;;
15077;SDS011;7638;49.760;8.646;2023-04-22T13:34:50;2.07;;;1.70;;
15077;SDS011;7638;49.760;8.646;2023-04-22T13:37:16;3.53;;;1.70;;
15077;SDS011;7638;49.760;8.646;2023-04-22T13:39:44;1.73;;;1.47;;
15077;SDS011;7638;49.760;8.646;2023-04-22T13:42:10;4.23;;;1.73;;
15077;SDS011;7638;49.760;8.646;2023-04-22T13:44:36;1.33;;;1.23;;
15077;SDS011;7638;49.760;8.646;2023-04-22T13:47:02;2.80;;;1.60;;
15077;SDS011;7638;49.760;8.646;2023-04-22T13:49:28;3.40;;;2.63;;
15077;SDS011;7638;49.760;8.646;2023-04-22T13:51:54;3.80;;;1.80;;
15077;SDS011;7638;49.760;8.646;2023-04-22T13:54:20;1.87;;;1.63;;
15077;SDS011;7638;49.760;8.646;2023-04-22T13:56:47;4.13;;;1.80;;
15077;SDS011;7638;49.760;8.646;2023-04-22T13:59:13;4.70;;;1.90;;
15077;SDS011;7638;49.760;8.646;2023-04-22T14:01:39;2.20;;;1.80;;
15077;SDS011;7638;49.760;8.646;2023-04-22T14:04:05;2.13;;;1.80;;
15077;SDS011;7638;49.760;8.646;2023-04-22T14:06:31;3.20;;;1.80;;
15077;SDS011;7638;49.760;8.646;2023-04-22T14:08:57;2.77;;;2.03;;
15077;SDS011;7638;49.760;8.646;2023-04-22T14:11:23;2.53;;;1.57;;
15077;SDS011;7638;49.760;8.646;2023-04-22T14:13:49;4.47;;;1.70;;
15077;SDS011;7638;49.760;8.646;2023-04-22T14:16:16;1.83;;;1.40;;
15077;SDS011;7638;49.760;8.646;2023-04-22T14:18:43;2.50;;;1.60;;
15077;SDS011;7638;49.760;8.646;2023-04-22T14:21:10;3.97;;;1.53;;
15077;SDS011;7638;49.760;8.646;2023-04-22T14:23:36;2.37;;;1.50;;
15077;SDS011;7638;49.760;8.646;2023-04-22T14:26:03;1.77;;;1.20;;
15077;SDS011;7638;49.760;8.646;2023-04-22T14:28:29;2.27;;;1.20;;
15077;SDS011;7638;49.760;8.646;2023-04-22T14:30:55;2.53;;;1.10;;
15077;SDS011;7638;49.760;8.646;2023-04-22T14:33:22;1.77;;;1.50;;
15077;SDS011;7638;49.760;8.646;2023-04-22T14:35:48;1.90;;;1.20;;
15077;SDS011;7638;49.760;8.646;2023-04-22T14:38:15;1.17;;;1.07;;
15077;SDS011;7638;49.760;8.646;2023-04-22T14:40:41;3.53;;;1.00;;
15077;SDS011;7638;49.760;8.646;2023-04-22T14:43:07;2.93;;;1.53;;
15077;SDS011;7638;49.760;8.646;2023-04-22T14:45:33;5.30;;;1.47;;
15077;SDS011;7638;49.760;8.646;2023-04-22T14:47:59;3.73;;;1.30;;
15077;SDS011;7638;49.760;8.646;2023-04-22T14:50:25;1.33;;;1.10;;
15077;SDS011;7638;49.760;8.646;2023-04-22T14:52:52;2.30;;;1.53;;
15077;SDS011;7638;49.760;8.646;2023-04-22T14:55:18;2.50;;;1.20;;
15077;SDS011;7638;49.760;8.646;2023-04-22T14:57:45;2.97;;;1.17;;
15077;SDS011;7638;49.760;8.646;2023-04-22T15:00:11;2.90;;;1.47;;
15077;SDS011;7638;49.760;8.646;2023-04-22T15:02:37;1.67;;;1.20;;
15077;SDS011;7638;49.760;8.646;2023-04-22T15:05:03;2.60;;;1.30;;
15077;SDS011;7638;49.760;8.646;2023-04-22T15:07:29;2.27;;;1.47;;